createdAt,value
2019-05-02T00:01:47.206Z,5.93
2019-05-02T00:04:20.131Z,5.53
2019-05-02T00:07:14.540Z,5.43
2019-05-02T00:09:48.215Z,5.43
2019-05-02T00:12:17.440Z,5.67
2019-05-02T00:14:48.328Z,5.83
2019-05-02T00:17:20.357Z,5.90
2019-05-02T00:19:51.950Z,5.27
2019-05-02T00:22:22.418Z,5.13
2019-05-02T00:24:52.973Z,5.50
2019-05-02T00:27:23.459Z,5.13
2019-05-02T00:29:58.527Z,4.87
2019-05-02T00:32:26.018Z,5.40
2019-05-02T00:34:56.398Z,4.90
2019-05-02T00:37:26.847Z,5.23
2019-05-02T00:39:57.342Z,5.13
2019-05-02T00:42:27.718Z,5.23
2019-05-02T00:44:58.135Z,5.70
2019-05-02T00:47:47.776Z,6.10
2019-05-02T00:50:15.418Z,6.00
2019-05-02T00:52:45.782Z,5.17
2019-05-02T00:55:16.243Z,5.97
2019-05-02T00:57:50.814Z,6.10
2019-05-02T01:00:19.788Z,5.70
2019-05-02T01:02:57.658Z,5.67
2019-05-02T01:05:27.927Z,5.40
2019-05-02T01:08:01.048Z,5.80
2019-05-02T01:10:30.498Z,5.67
2019-05-02T01:13:00.947Z,5.80
2019-05-02T01:15:31.410Z,5.13
2019-05-02T01:18:06.110Z,5.27
2019-05-02T01:20:33.917Z,5.53
2019-05-02T01:23:04.289Z,5.07
2019-05-02T01:25:34.630Z,5.50
2019-05-02T01:28:17.579Z,4.93
2019-05-02T01:31:03.587Z,4.97
2019-05-02T01:33:51.798Z,5.40
2019-05-02T01:36:26.787Z,4.93
2019-05-02T01:38:57.139Z,4.90
2019-05-02T01:41:29.363Z,5.17
2019-05-02T01:44:00.442Z,4.77
2019-05-02T01:46:31.675Z,4.80
2019-05-02T01:49:02.017Z,4.83
2019-05-02T01:51:32.472Z,5.00
2019-05-02T01:54:05.045Z,4.70
2019-05-02T01:56:34.957Z,4.73
2019-05-02T01:59:05.282Z,5.03
2019-05-02T02:01:35.671Z,5.03
2019-05-02T02:04:06.072Z,4.97
2019-05-02T02:06:38.808Z,5.10
2019-05-02T02:09:09.900Z,4.90
2019-05-02T02:11:40.451Z,4.67
2019-05-02T02:14:12.889Z,4.73
2019-05-02T02:16:42.998Z,4.87
2019-05-02T02:19:19.059Z,4.90
2019-05-02T02:21:57.412Z,4.87
2019-05-02T02:24:32.865Z,4.00
2019-05-02T02:27:03.322Z,4.47
2019-05-02T02:29:33.790Z,5.03
2019-05-02T02:32:04.354Z,4.90
2019-05-02T02:34:34.740Z,4.80
2019-05-02T02:37:11.421Z,4.83
2019-05-02T02:39:37.197Z,5.30
2019-05-02T02:42:07.626Z,4.87
2019-05-02T02:45:06.033Z,5.13
2019-05-02T02:47:36.411Z,5.27
2019-05-02T02:50:06.788Z,5.27
2019-05-02T02:52:37.712Z,4.97
2019-05-02T02:55:09.462Z,5.23
2019-05-02T02:57:39.750Z,4.90
2019-05-02T03:00:11.122Z,4.77
2019-05-02T03:02:48.042Z,5.10
2019-05-02T03:05:18.989Z,4.80
2019-05-02T03:07:46.261Z,5.20
2019-05-02T03:10:16.779Z,5.27
2019-05-02T03:13:06.203Z,5.40
2019-05-02T03:15:41.319Z,5.00
2019-05-02T03:18:11.690Z,5.03
2019-05-02T03:20:42.462Z,5.20
2019-05-02T03:23:15.166Z,5.60
2019-05-02T03:25:50.344Z,5.77
2019-05-02T03:28:20.411Z,4.97
2019-05-02T03:30:49.819Z,4.97
2019-05-02T03:33:20.445Z,5.40
2019-05-02T03:35:51.058Z,5.50
2019-05-02T03:38:31.013Z,5.33
2019-05-02T03:40:54.010Z,5.17
2019-05-02T03:43:25.610Z,5.10
2019-05-02T03:45:56.295Z,5.00
2019-05-02T03:48:27.810Z,4.97
2019-05-02T03:50:58.522Z,4.93
2019-05-02T03:53:28.880Z,5.20
2019-05-02T03:56:10.839Z,5.33
2019-05-02T03:58:32.376Z,5.20
2019-05-02T04:01:03.955Z,4.87
2019-05-02T04:03:41.036Z,5.13
2019-05-02T04:06:07.440Z,4.90
2019-05-02T04:08:38.861Z,5.40
2019-05-02T04:11:39.077Z,5.00
2019-05-02T04:14:15.273Z,5.60
2019-05-02T04:16:38.549Z,4.97
2019-05-02T04:19:08.987Z,4.70
2019-05-02T04:21:39.339Z,5.17
2019-05-02T04:24:14.992Z,5.07
2019-05-02T04:26:52.608Z,4.70
2019-05-02T04:29:13.934Z,5.00
2019-05-02T04:31:44.396Z,4.77
2019-05-02T04:34:17.791Z,4.57
2019-05-02T04:36:53.422Z,4.80
2019-05-02T04:39:21.659Z,4.90
2019-05-02T04:41:51.336Z,4.60
2019-05-02T04:44:21.708Z,3.80
2019-05-02T04:46:52.190Z,4.23
2019-05-02T04:49:32.791Z,4.77
2019-05-02T04:52:04.463Z,4.50
2019-05-02T04:54:31.529Z,4.50
2019-05-02T04:57:02.197Z,4.33
2019-05-02T04:59:32.894Z,4.70
2019-05-02T05:02:02.702Z,4.83
2019-05-02T05:04:42.397Z,4.83
2019-05-02T05:07:05.170Z,4.63
2019-05-02T05:09:35.576Z,4.50
2019-05-02T05:12:07.147Z,4.73
2019-05-02T05:14:42.762Z,4.53
2019-05-02T05:17:09.783Z,4.53
2019-05-02T05:19:40.371Z,4.53
2019-05-02T05:22:11.990Z,4.33
2019-05-02T05:24:49.459Z,4.50
2019-05-02T05:27:22.855Z,4.80
2019-05-02T05:29:53.576Z,4.77
2019-05-02T05:32:24.163Z,4.63
2019-05-02T05:34:54.520Z,5.07
2019-05-02T05:37:24.975Z,4.77
2019-05-02T05:39:55.322Z,5.17
2019-05-02T05:42:30.211Z,4.87
2019-05-02T05:44:58.354Z,4.70
2019-05-02T05:47:28.866Z,5.50
2019-05-02T05:50:01.033Z,4.40
2019-05-02T05:52:33.168Z,4.90
2019-05-02T05:55:04.906Z,4.90
2019-05-02T05:57:35.484Z,4.93
2019-05-02T06:00:11.440Z,4.93
2019-05-02T06:02:52.808Z,4.80
2019-05-02T06:05:10.886Z,4.83
2019-05-02T06:07:44.686Z,4.50
2019-05-02T06:10:13.255Z,4.37
2019-05-02T06:12:43.603Z,4.20
2019-05-02T06:15:14.319Z,4.23
2019-05-02T06:17:44.662Z,4.17
2019-05-02T06:20:15.486Z,4.87
2019-05-02T06:22:45.926Z,4.93
2019-05-02T06:25:16.397Z,5.10
2019-05-02T06:27:46.844Z,4.90
2019-05-02T06:30:17.295Z,5.37
2019-05-02T06:32:50.109Z,6.27
2019-05-02T06:35:21.215Z,6.43
2019-05-02T06:37:51.998Z,6.33
2019-05-02T06:40:22.667Z,6.10
2019-05-02T06:42:53.135Z,6.73
2019-05-02T06:45:23.406Z,6.40
2019-05-02T06:47:53.790Z,5.87
2019-05-02T06:50:24.914Z,6.00
2019-05-02T06:52:55.334Z,5.67
2019-05-02T06:55:27.806Z,6.27
2019-05-02T06:58:02.816Z,6.80
2019-05-02T07:00:39.933Z,6.57
2019-05-02T07:03:05.009Z,6.30
2019-05-02T07:05:34.124Z,6.57
2019-05-02T07:08:06.559Z,6.17
2019-05-02T07:10:44.575Z,5.97
2019-05-02T07:13:10.705Z,5.80
2019-05-02T07:15:51.611Z,5.73
2019-05-02T07:18:23.056Z,5.80
2019-05-02T07:20:53.673Z,4.57
2019-05-02T07:23:24.022Z,5.40
2019-05-02T07:25:54.403Z,5.40
2019-05-02T07:28:24.780Z,5.40
2019-05-02T07:30:55.246Z,4.50
2019-05-02T07:33:25.720Z,4.43
2019-05-02T07:36:00.058Z,4.80
2019-05-02T07:38:28.255Z,4.00
2019-05-02T07:40:59.102Z,3.97
2019-05-02T07:43:29.460Z,3.93
2019-05-02T07:45:59.963Z,4.33
2019-05-02T07:48:30.368Z,4.30
2019-05-02T07:51:00.742Z,4.17
2019-05-02T07:53:31.114Z,3.90
2019-05-02T07:56:01.570Z,14.87
2019-05-02T07:58:31.870Z,31.23
2019-05-02T08:01:02.223Z,13.63
2019-05-02T08:03:33.497Z,13.77
2019-05-02T08:06:04.567Z,18.23
2019-05-02T08:08:36.411Z,12.63
2019-05-02T08:11:06.794Z,6.77
2019-05-02T08:13:37.195Z,3.40
2019-05-02T08:16:07.588Z,3.90
2019-05-02T08:18:38.142Z,3.00
2019-05-02T08:21:08.525Z,3.10
2019-05-02T08:23:38.857Z,4.27
2019-05-02T08:26:09.319Z,8.67
2019-05-02T08:28:53.814Z,5.90
2019-05-02T08:31:24.267Z,9.03
2019-05-02T08:33:54.569Z,29.77
2019-05-02T08:36:24.919Z,5.80
2019-05-02T08:38:55.496Z,16.17
2019-05-02T08:41:25.822Z,11.93
2019-05-02T08:43:56.164Z,7.73
2019-05-02T08:46:26.512Z,5.53
2019-05-02T08:48:57.049Z,9.73
2019-05-02T08:51:27.415Z,7.57
2019-05-02T08:53:58.649Z,6.30
2019-05-02T08:56:29.147Z,5.40
2019-05-02T08:58:59.591Z,5.73
2019-05-02T09:01:35.253Z,10.83
2019-05-02T09:04:02.071Z,9.17
2019-05-02T09:06:32.386Z,7.87
2019-05-02T09:09:02.731Z,3.67
2019-05-02T09:11:33.190Z,4.07
2019-05-02T09:14:03.534Z,3.80
2019-05-02T09:16:33.903Z,8.20
2019-05-02T09:19:04.354Z,7.13
2019-05-02T09:21:36.115Z,3.70
2019-05-02T09:24:08.452Z,3.20
2019-05-02T09:26:38.851Z,3.60
2019-05-02T09:29:09.342Z,3.37
2019-05-02T09:31:42.200Z,3.50
2019-05-02T09:34:11.872Z,3.23
2019-05-02T09:36:42.279Z,3.67
2019-05-02T09:39:12.632Z,3.70
2019-05-02T09:41:43.091Z,3.30
2019-05-02T09:44:18.477Z,3.03
2019-05-02T09:46:47.410Z,3.13
2019-05-02T09:49:17.335Z,3.40
2019-05-02T09:51:50.443Z,3.10
2019-05-02T09:54:19.763Z,2.93
2019-05-02T09:56:52.175Z,3.20
2019-05-02T09:59:30.185Z,3.60
2019-05-02T10:01:58.063Z,3.27
2019-05-02T10:04:28.602Z,2.97
2019-05-02T10:06:59.067Z,3.50
2019-05-02T10:09:29.522Z,3.13
2019-05-02T10:12:01.888Z,2.93
2019-05-02T10:14:33.014Z,2.93
2019-05-02T10:17:07.106Z,3.00
2019-05-02T10:19:35.810Z,3.10
2019-05-02T10:22:06.167Z,3.17
2019-05-02T10:24:36.614Z,3.13
2019-05-02T10:27:08.638Z,2.90
2019-05-02T10:29:39.067Z,2.80
2019-05-02T10:32:15.075Z,2.87
2019-05-02T10:34:42.213Z,2.90
2019-05-02T10:37:12.679Z,2.90
2019-05-02T10:39:43.115Z,3.20
2019-05-02T10:42:13.461Z,2.80
2019-05-02T10:44:43.908Z,2.80
2019-05-02T10:47:14.366Z,2.97
2019-05-02T10:49:52.813Z,2.90
2019-05-02T10:52:29.487Z,2.97
2019-05-02T10:54:55.103Z,2.77
2019-05-02T10:57:25.763Z,3.00
2019-05-02T10:59:59.195Z,2.87
2019-05-02T11:02:54.484Z,2.90
2019-05-02T11:05:26.644Z,3.27
2019-05-02T11:08:04.637Z,2.73
2019-05-02T11:10:29.137Z,3.23
2019-05-02T11:13:05.508Z,2.93
2019-05-02T11:15:53.558Z,2.80
2019-05-02T11:18:39.405Z,3.20
2019-05-02T11:21:03.591Z,2.90
2019-05-02T11:23:32.895Z,3.30
2019-05-02T11:26:03.088Z,2.93
2019-05-02T11:28:33.469Z,2.87
2019-05-02T11:31:06.820Z,2.90
2019-05-02T11:33:36.893Z,2.80
2019-05-02T11:36:07.263Z,2.80
2019-05-02T11:38:46.964Z,3.00
2019-05-02T11:41:11.849Z,2.97
2019-05-02T11:43:44.854Z,2.83
2019-05-02T11:46:13.659Z,2.87
2019-05-02T11:48:55.663Z,2.80
2019-05-02T11:51:16.529Z,2.83
2019-05-02T11:53:46.979Z,2.57
2019-05-02T11:56:17.359Z,3.00
2019-05-02T11:58:50.090Z,2.90
2019-05-02T12:01:34.291Z,2.70
2019-05-02T12:03:52.845Z,3.00
2019-05-02T12:06:23.387Z,3.47
2019-05-02T12:08:53.830Z,2.90
2019-05-02T12:11:24.211Z,2.83
2019-05-02T12:13:56.997Z,3.03
2019-05-02T12:16:26.743Z,2.70
2019-05-02T12:19:08.588Z,2.70
2019-05-02T12:21:29.251Z,3.00
2019-05-02T12:24:00.353Z,3.00
2019-05-02T12:26:32.344Z,2.93
2019-05-02T12:29:02.966Z,2.63
2019-05-02T12:31:33.610Z,2.90
2019-05-02T12:34:05.982Z,2.77
2019-05-02T12:36:36.272Z,2.63
2019-05-02T12:39:07.481Z,2.70
2019-05-02T12:41:37.855Z,2.90
2019-05-02T12:44:08.307Z,2.90
2019-05-02T12:46:38.670Z,3.10
2019-05-02T12:49:21.804Z,2.90
2019-05-02T12:51:42.855Z,2.87
2019-05-02T12:54:13.086Z,2.87
2019-05-02T12:56:43.495Z,3.47
2019-05-02T12:59:13.855Z,4.37
2019-05-02T13:01:44.212Z,4.43
2019-05-02T13:04:14.630Z,3.37
2019-05-02T13:06:45.075Z,2.77
2019-05-02T13:09:15.536Z,4.87
2019-05-02T13:12:03.658Z,5.73
2019-05-02T13:14:34.033Z,5.60
2019-05-02T13:17:05.802Z,2.60
2019-05-02T13:19:41.238Z,7.03
2019-05-02T13:22:21.662Z,2.97
2019-05-02T13:24:56.243Z,3.17
2019-05-02T13:27:26.749Z,2.93
2019-05-02T13:29:57.087Z,3.10
2019-05-02T13:32:35.962Z,2.83
2019-05-02T13:35:31.713Z,3.20
2019-05-02T13:38:04.493Z,3.10
2019-05-02T13:40:39.400Z,2.70
2019-05-02T13:43:09.862Z,2.80
2019-05-02T13:45:59.235Z,6.73
2019-05-02T13:48:32.155Z,3.00
2019-05-02T13:51:03.948Z,2.70
2019-05-02T13:53:35.247Z,2.70
2019-05-02T13:56:23.627Z,2.90
2019-05-02T13:58:54.314Z,2.80
2019-05-02T14:01:24.587Z,2.80
2019-05-02T14:03:55.839Z,2.80
2019-05-02T14:06:29.764Z,2.70
2019-05-02T14:09:07.468Z,2.60
2019-05-02T14:12:01.985Z,2.73
2019-05-02T14:14:32.697Z,2.97
2019-05-02T14:17:03.191Z,2.90
2019-05-02T14:19:33.599Z,2.90
2019-05-02T14:22:03.982Z,2.70
2019-05-02T14:24:34.349Z,3.00
2019-05-02T14:27:07.144Z,2.70
2019-05-02T14:29:36.667Z,2.70
2019-05-02T14:32:20.318Z,2.90
2019-05-02T14:34:52.511Z,2.37
2019-05-02T14:37:23.075Z,3.00
2019-05-02T14:39:57.167Z,2.70
2019-05-02T14:42:27.516Z,2.60
2019-05-02T14:45:09.062Z,2.50
2019-05-02T14:47:29.875Z,3.10
2019-05-02T14:50:02.220Z,2.60
2019-05-02T14:52:32.716Z,2.60
2019-05-02T14:55:03.448Z,2.60
2019-05-02T14:57:33.817Z,2.50
2019-05-02T15:00:05.081Z,2.70
2019-05-02T15:02:49.015Z,2.60
2019-05-02T15:05:19.325Z,2.30
2019-05-02T15:07:49.248Z,2.50
2019-05-02T15:10:19.594Z,3.00
2019-05-02T15:12:51.667Z,2.40
2019-05-02T15:15:23.136Z,2.47
2019-05-02T15:17:53.626Z,2.60
2019-05-02T15:20:36.342Z,2.70
2019-05-02T15:22:56.167Z,2.50
2019-05-02T15:25:26.539Z,2.70
2019-05-02T15:27:59.992Z,2.60
2019-05-02T15:30:29.063Z,2.60
2019-05-02T15:33:04.470Z,2.63
2019-05-02T15:35:39.178Z,2.53
2019-05-02T15:38:09.670Z,2.60
2019-05-02T15:40:48.153Z,2.83
2019-05-02T15:43:14.952Z,2.47
2019-05-02T15:45:45.460Z,2.77
2019-05-02T15:48:22.609Z,2.83
2019-05-02T15:50:52.469Z,3.57
2019-05-02T15:53:39.140Z,3.00
2019-05-02T15:56:18.646Z,2.73
2019-05-02T15:58:38.935Z,2.50
2019-05-02T16:01:22.699Z,2.43
2019-05-02T16:03:53.816Z,2.43
2019-05-02T16:06:30.500Z,2.60
2019-05-02T16:08:56.328Z,2.37
2019-05-02T16:11:26.817Z,2.40
2019-05-02T16:13:57.163Z,2.83
2019-05-02T16:16:27.680Z,2.63
2019-05-02T16:18:58.094Z,2.50
2019-05-02T16:21:43.311Z,2.47
2019-05-02T16:24:23.736Z,2.57
2019-05-02T16:26:56.924Z,2.43
2019-05-02T16:29:28.914Z,2.40
2019-05-02T16:32:21.993Z,2.70
2019-05-02T16:35:17.670Z,2.47
2019-05-02T16:37:54.443Z,2.57
2019-05-02T16:40:22.128Z,2.60
2019-05-02T16:42:55.690Z,2.60
2019-05-02T16:45:26.118Z,2.50
2019-05-02T16:47:58.912Z,2.60
2019-05-02T16:50:34.676Z,2.60
2019-05-02T16:53:02.308Z,2.50
2019-05-02T16:55:32.903Z,2.80
2019-05-02T16:58:07.138Z,3.63
2019-05-02T17:00:36.826Z,2.70
2019-05-02T17:03:07.410Z,3.07
2019-05-02T17:05:39.260Z,6.23
2019-05-02T17:08:27.310Z,2.50
2019-05-02T17:11:16.598Z,2.50
2019-05-02T17:13:47.429Z,2.60
2019-05-02T17:16:17.995Z,3.20
2019-05-02T17:18:52.368Z,3.20
2019-05-02T17:21:22.110Z,5.13
2019-05-02T17:23:52.795Z,2.93
2019-05-02T17:26:23.371Z,3.40
2019-05-02T17:28:53.869Z,2.50
2019-05-02T17:31:24.319Z,2.40
2019-05-02T17:33:55.049Z,2.20
2019-05-02T17:36:28.681Z,2.20
2019-05-02T17:38:59.459Z,2.20
2019-05-02T17:41:31.696Z,2.57
2019-05-02T17:44:03.166Z,2.40
2019-05-02T17:46:33.790Z,2.47
2019-05-02T17:49:04.138Z,2.20
2019-05-02T17:52:04.958Z,2.10
2019-05-02T17:54:26.312Z,2.20
2019-05-02T17:56:57.624Z,2.33
2019-05-02T17:59:34.562Z,2.30
2019-05-02T18:02:01.852Z,2.10
2019-05-02T18:04:32.574Z,2.20
2019-05-02T18:07:03.190Z,2.20
2019-05-02T18:09:35.041Z,2.27
2019-05-02T18:12:10.241Z,2.80
2019-05-02T18:14:37.790Z,2.50
2019-05-02T18:17:08.246Z,2.40
2019-05-02T18:19:38.713Z,2.50
2019-05-02T18:22:21.094Z,2.40
2019-05-02T18:24:44.770Z,2.43
2019-05-02T18:27:13.260Z,2.40
2019-05-02T18:29:45.535Z,2.50
2019-05-02T18:32:17.497Z,2.30
2019-05-02T18:34:48.054Z,2.57
2019-05-02T18:37:18.595Z,2.33
2019-05-02T18:39:53.365Z,3.80
2019-05-02T18:42:25.295Z,11.30
2019-05-02T18:44:54.513Z,13.00
2019-05-02T18:47:25.066Z,3.27
2019-05-02T18:50:00.829Z,19.33
2019-05-02T18:52:36.468Z,8.63
2019-05-02T18:55:01.502Z,12.83
2019-05-02T18:57:31.613Z,13.23
2019-05-02T19:00:02.125Z,4.13
2019-05-02T19:02:35.590Z,3.00
2019-05-02T19:05:06.154Z,3.00
2019-05-02T19:07:36.583Z,2.70
2019-05-02T19:10:07.429Z,2.70
2019-05-02T19:12:37.911Z,3.10
2019-05-02T19:15:08.603Z,8.07
2019-05-02T19:17:49.258Z,2.60
2019-05-02T19:20:51.586Z,2.37
2019-05-02T19:23:16.259Z,4.50
2019-05-02T19:25:46.791Z,6.60
2019-05-02T19:28:19.891Z,6.77
2019-05-02T19:30:52.011Z,4.33
2019-05-02T19:33:23.529Z,5.07
2019-05-02T19:35:54.125Z,4.50
2019-05-02T19:38:26.246Z,3.33
2019-05-02T19:40:58.169Z,2.50
2019-05-02T19:43:29.009Z,2.43
2019-05-02T19:45:59.418Z,2.30
2019-05-02T19:48:32.924Z,2.73
2019-05-02T19:51:02.530Z,2.30
2019-05-02T19:53:33.302Z,2.70
2019-05-02T19:56:03.674Z,2.63
2019-05-02T19:58:36.870Z,2.20
2019-05-02T20:01:07.845Z,2.70
2019-05-02T20:03:38.577Z,2.13
2019-05-02T20:06:09.159Z,2.90
2019-05-02T20:08:39.543Z,2.67
2019-05-02T20:11:12.438Z,2.70
2019-05-02T20:13:42.494Z,2.70
2019-05-02T20:16:26.476Z,2.30
2019-05-02T20:18:57.087Z,2.30
2019-05-02T20:22:06.751Z,2.57
2019-05-02T20:25:08.460Z,2.43
2019-05-02T20:27:38.933Z,2.50
2019-05-02T20:30:11.892Z,2.40
2019-05-02T20:32:42.943Z,2.50
2019-05-02T20:35:13.706Z,2.50
2019-05-02T20:37:45.397Z,2.50
2019-05-02T20:40:31.650Z,2.40
2019-05-02T20:43:02.599Z,2.60
2019-05-02T20:45:33.075Z,2.30
2019-05-02T20:48:03.666Z,2.50
2019-05-02T20:50:34.104Z,2.10
2019-05-02T20:53:05.242Z,2.60
2019-05-02T20:55:35.775Z,2.50
2019-05-02T20:58:06.249Z,2.10
2019-05-02T21:00:38.368Z,2.20
2019-05-02T21:03:08.779Z,2.30
2019-05-02T21:05:58.164Z,2.43
2019-05-02T21:08:52.438Z,2.20
2019-05-02T21:11:24.466Z,2.60
2019-05-02T21:13:54.945Z,2.60
2019-05-02T21:16:25.319Z,2.23
2019-05-02T21:18:55.819Z,2.50
2019-05-02T21:21:26.342Z,2.50
2019-05-02T21:23:56.870Z,2.70
2019-05-02T21:26:27.252Z,2.40
2019-05-02T21:29:01.349Z,2.50
2019-05-02T21:31:31.993Z,2.57
2019-05-02T21:34:02.666Z,2.57
2019-05-02T21:36:33.202Z,2.60
2019-05-02T21:39:03.801Z,2.67
2019-05-02T21:41:34.211Z,2.50
2019-05-02T21:44:04.798Z,2.40
2019-05-02T21:46:35.320Z,2.40
2019-05-02T21:49:08.551Z,2.40
2019-05-02T21:51:45.178Z,2.30
2019-05-02T21:54:34.678Z,2.67
2019-05-02T21:57:12.133Z,2.10
2019-05-02T21:59:42.600Z,2.50
2019-05-02T22:02:13.728Z,2.63
2019-05-02T22:04:44.208Z,2.30
2019-05-02T22:07:14.828Z,2.50
2019-05-02T22:09:54.911Z,2.70
2019-05-02T22:12:25.472Z,2.33
2019-05-02T22:14:57.247Z,2.50
2019-05-02T22:17:27.855Z,2.43
2019-05-02T22:19:58.355Z,2.53
2019-05-02T22:22:29.479Z,2.53
2019-05-02T22:25:01.923Z,2.50
2019-05-02T22:27:32.507Z,2.57
2019-05-02T22:30:03.110Z,2.40
2019-05-02T22:32:33.463Z,2.80
2019-05-02T22:35:04.374Z,2.73
2019-05-02T22:37:38.870Z,2.80
2019-05-02T22:40:13.455Z,2.70
2019-05-02T22:42:44.046Z,2.70
2019-05-02T22:45:14.485Z,2.70
2019-05-02T22:47:44.863Z,2.80
2019-05-02T22:50:15.454Z,2.90
2019-05-02T22:52:45.956Z,2.90
2019-05-02T22:55:18.584Z,2.67
2019-05-02T22:57:49.090Z,3.00
2019-05-02T23:00:21.551Z,2.77
2019-05-02T23:02:52.498Z,2.90
2019-05-02T23:05:24.458Z,2.70
2019-05-02T23:07:54.883Z,2.70
2019-05-02T23:10:25.394Z,2.70
2019-05-02T23:12:58.523Z,2.50
2019-05-02T23:15:29.189Z,2.90
2019-05-02T23:18:01.547Z,2.67
2019-05-02T23:20:32.948Z,2.90
2019-05-02T23:23:03.576Z,3.10
2019-05-02T23:26:04.053Z,3.10
2019-05-02T23:28:35.819Z,3.00
2019-05-02T23:31:06.199Z,3.10
2019-05-02T23:33:54.095Z,3.20
2019-05-02T23:36:24.553Z,3.30
2019-05-02T23:38:54.973Z,3.03
2019-05-02T23:41:25.738Z,3.47
2019-05-02T23:43:56.236Z,2.90
2019-05-02T23:46:26.594Z,3.10
2019-05-02T23:48:56.951Z,2.70
2019-05-02T23:51:27.414Z,2.80
2019-05-02T23:53:57.734Z,3.30
2019-05-02T23:56:28.110Z,2.93
2019-05-02T23:58:58.471Z,3.00
